sensor_id;sensor_type;location;lat;lon;timestamp;pressure;altitude;pressure_sealevel;temperature;humidity
22572;BME280;11452;53.368;14.658;2023-01-24T00:00:27;103489.58;;;2.74;64.90
22572;BME280;11452;53.368;14.658;2023-01-24T00:05:35;103490.28;;;2.88;64.97
22572;BME280;11452;53.368;14.658;2023-01-24T00:10:41;103488.27;;;2.96;65.08
22572;BME280;11452;53.368;14.658;2023-01-24T00:15:47;103488.83;;;3.03;64.97
22572;BME280;11452;53.368;14.658;2023-01-24T00:21:06;103478.06;;;2.93;64.61
22572;BME280;11452;53.368;14.658;2023-01-24T00:26:07;103480.34;;;2.96;64.83
22572;BME280;11452;53.368;14.658;2023-01-24T00:31:12;103476.80;;;2.97;64.71
22572;BME280;11452;53.368;14.658;2023-01-24T00:36:19;103471.82;;;2.89;64.62
22572;BME280;11452;53.368;14.658;2023-01-24T00:41:24;103479.81;;;2.92;64.74
22572;BME280;11452;53.368;14.658;2023-01-24T00:46:30;103478.89;;;2.90;64.86
22572;BME280;11452;53.368;14.658;2023-01-24T00:51:36;103477.66;;;2.95;64.82
22572;BME280;11452;53.368;14.658;2023-01-24T00:56:41;103487.07;;;3.04;65.02
22572;BME280;11452;53.368;14.658;2023-01-24T01:01:47;103494.14;;;3.05;64.99
22572;BME280;11452;53.368;14.658;2023-01-24T01:06:52;103492.52;;;2.90;64.54
22572;BME280;11452;53.368;14.658;2023-01-24T01:11:58;103492.20;;;2.95;64.92
22572;BME280;11452;53.368;14.658;2023-01-24T01:17:04;103504.12;;;2.96;64.84
22572;BME280;11452;53.368;14.658;2023-01-24T01:22:09;103496.62;;;2.96;64.99
22572;BME280;11452;53.368;14.658;2023-01-24T01:27:15;103490.91;;;2.98;65.11
22572;BME280;11452;53.368;14.658;2023-01-24T01:32:21;103494.80;;;2.93;64.99
22572;BME280;11452;53.368;14.658;2023-01-24T01:37:27;103503.48;;;2.88;65.06
22572;BME280;11452;53.368;14.658;2023-01-24T01:42:53;103506.55;;;2.87;64.99
22572;BME280;11452;53.368;14.658;2023-01-24T01:47:59;103508.56;;;2.77;64.81
22572;BME280;11452;53.368;14.658;2023-01-24T01:53:07;103500.57;;;2.74;65.19
22572;BME280;11452;53.368;14.658;2023-01-24T01:58:13;103501.46;;;2.74;65.08
22572;BME280;11452;53.368;14.658;2023-01-24T02:03:25;103499.18;;;2.71;65.16
22572;BME280;11452;53.368;14.658;2023-01-24T02:08:32;103487.01;;;2.77;65.53
22572;BME280;11452;53.368;14.658;2023-01-24T02:13:39;103484.83;;;2.80;65.38
22572;BME280;11452;53.368;14.658;2023-01-24T02:18:47;103485.26;;;2.78;65.43
22572;BME280;11452;53.368;14.658;2023-01-24T02:24:04;103493.18;;;2.78;65.38
22572;BME280;11452;53.368;14.658;2023-01-24T02:29:12;103490.94;;;2.76;65.26
22572;BME280;11452;53.368;14.658;2023-01-24T02:34:18;103482.09;;;2.74;65.30
22572;BME280;11452;53.368;14.658;2023-01-24T02:39:34;103474.27;;;2.80;65.43
22572;BME280;11452;53.368;14.658;2023-01-24T02:44:41;103462.88;;;2.83;65.37
22572;BME280;11452;53.368;14.658;2023-01-24T02:49:41;103459.81;;;2.83;64.96
22572;BME280;11452;53.368;14.658;2023-01-24T02:54:47;103458.09;;;2.85;65.25
22572;BME280;11452;53.368;14.658;2023-01-24T02:59:52;103455.52;;;2.88;65.32
22572;BME280;11452;53.368;14.658;2023-01-24T03:04:58;103456.27;;;2.83;64.92
22572;BME280;11452;53.368;14.658;2023-01-24T03:10:04;103456.38;;;2.87;65.14
22572;BME280;11452;53.368;14.658;2023-01-24T03:15:10;103453.04;;;2.74;64.87
22572;BME280;11452;53.368;14.658;2023-01-24T03:20:34;103451.36;;;2.79;65.14
22572;BME280;11452;53.368;14.658;2023-01-24T03:25:58;103451.66;;;2.71;64.83
22572;BME280;11452;53.368;14.658;2023-01-24T03:31:21;103460.48;;;2.51;64.46
22572;BME280;11452;53.368;14.658;2023-01-24T03:36:45;103464.88;;;2.51;65.05
22572;BME280;11452;53.368;14.658;2023-01-24T03:41:51;103466.23;;;2.52;65.20
22572;BME280;11452;53.368;14.658;2023-01-24T03:46:57;103471.86;;;2.49;65.23
22572;BME280;11452;53.368;14.658;2023-01-24T03:52:04;103475.03;;;2.53;65.29
22572;BME280;11452;53.368;14.658;2023-01-24T03:57:28;103486.48;;;2.53;65.42
22572;BME280;11452;53.368;14.658;2023-01-24T04:02:35;103486.63;;;2.59;65.66
22572;BME280;11452;53.368;14.658;2023-01-24T04:07:42;103488.58;;;2.69;65.83
22572;BME280;11452;53.368;14.658;2023-01-24T04:12:48;103480.66;;;2.69;65.36
22572;BME280;11452;53.368;14.658;2023-01-24T04:17:58;103474.13;;;2.72;65.75
22572;BME280;11452;53.368;14.658;2023-01-24T04:23:06;103478.70;;;2.61;65.07
22572;BME280;11452;53.368;14.658;2023-01-24T04:28:13;103472.17;;;2.64;65.74
22572;BME280;11452;53.368;14.658;2023-01-24T04:33:20;103468.64;;;2.63;65.83
22572;BME280;11452;53.368;14.658;2023-01-24T04:38:26;103468.75;;;2.68;65.82
22572;BME280;11452;53.368;14.658;2023-01-24T04:43:36;103462.81;;;2.78;65.95
22572;BME280;11452;53.368;14.658;2023-01-24T04:48:42;103454.42;;;2.78;65.79
22572;BME280;11452;53.368;14.658;2023-01-24T04:53:47;103451.26;;;2.73;65.69
22572;BME280;11452;53.368;14.658;2023-01-24T04:58:56;103446.87;;;2.73;65.77
22572;BME280;11452;53.368;14.658;2023-01-24T05:04:02;103447.76;;;2.74;65.75
22572;BME280;11452;53.368;14.658;2023-01-24T05:09:09;103444.06;;;2.66;65.69
22572;BME280;11452;53.368;14.658;2023-01-24T05:14:23;103448.25;;;2.55;65.25
22572;BME280;11452;53.368;14.658;2023-01-24T05:19:29;103457.88;;;2.53;65.84
22572;BME280;11452;53.368;14.658;2023-01-24T05:24:35;103461.48;;;2.56;65.99
22572;BME280;11452;53.368;14.658;2023-01-24T05:29:41;103464.34;;;2.47;65.72
22572;BME280;11452;53.368;14.658;2023-01-24T05:34:47;103479.31;;;2.48;65.84
22572;BME280;11452;53.368;14.658;2023-01-24T05:39:53;103473.11;;;2.46;65.99
22572;BME280;11452;53.368;14.658;2023-01-24T05:44:59;103483.98;;;2.61;66.49
22572;BME280;11452;53.368;14.658;2023-01-24T05:50:06;103481.99;;;2.49;65.90
22572;BME280;11452;53.368;14.658;2023-01-24T05:55:12;103481.99;;;2.49;66.13
22572;BME280;11452;53.368;14.658;2023-01-24T06:00:20;103484.63;;;2.49;66.34
22572;BME280;11452;53.368;14.658;2023-01-24T06:05:27;103483.23;;;2.46;66.35
22572;BME280;11452;53.368;14.658;2023-01-24T06:10:33;103488.77;;;2.57;66.44
22572;BME280;11452;53.368;14.658;2023-01-24T06:15:40;103498.36;;;2.53;66.34
22572;BME280;11452;53.368;14.658;2023-01-24T06:20:48;103512.92;;;2.55;66.30
22572;BME280;11452;53.368;14.658;2023-01-24T06:25:54;103519.77;;;2.47;66.57
22572;BME280;11452;53.368;14.658;2023-01-24T06:31:03;103512.42;;;2.52;66.57
22572;BME280;11452;53.368;14.658;2023-01-24T06:36:26;103525.44;;;2.44;66.84
22572;BME280;11452;53.368;14.658;2023-01-24T06:41:30;103518.20;;;2.55;66.79
22572;BME280;11452;53.368;14.658;2023-01-24T06:46:35;103523.66;;;2.64;66.92
22572;BME280;11452;53.368;14.658;2023-01-24T06:51:41;103537.17;;;2.57;66.40
22572;BME280;11452;53.368;14.658;2023-01-24T06:56:47;103531.44;;;2.56;66.77
22572;BME280;11452;53.368;14.658;2023-01-24T07:01:52;103533.94;;;2.70;67.05
22572;BME280;11452;53.368;14.658;2023-01-24T07:06:57;103535.58;;;3.29;65.50
22572;BME280;11452;53.368;14.658;2023-01-24T07:12:03;103528.38;;;3.00;66.50
22572;BME280;11452;53.368;14.658;2023-01-24T07:17:09;103532.31;;;2.99;66.68
22572;BME280;11452;53.368;14.658;2023-01-24T07:22:15;103539.91;;;3.04;66.95
22572;BME280;11452;53.368;14.658;2023-01-24T07:27:22;103543.08;;;3.08;66.92
22572;BME280;11452;53.368;14.658;2023-01-24T07:32:27;103540.08;;;3.11;66.70
22572;BME280;11452;53.368;14.658;2023-01-24T07:37:33;103554.94;;;3.06;66.97
22572;BME280;11452;53.368;14.658;2023-01-24T07:42:38;103549.33;;;3.11;67.08
22572;BME280;11452;53.368;14.658;2023-01-24T07:47:44;103544.23;;;3.22;67.11
22572;BME280;11452;53.368;14.658;2023-01-24T07:52:51;103540.38;;;3.27;67.06
22572;BME280;11452;53.368;14.658;2023-01-24T07:58:01;103543.66;;;3.38;67.15
22572;BME280;11452;53.368;14.658;2023-01-24T08:03:09;103546.80;;;3.41;67.10
22572;BME280;11452;53.368;14.658;2023-01-24T08:08:15;103555.56;;;3.38;66.81
22572;BME280;11452;53.368;14.658;2023-01-24T08:13:20;103564.48;;;3.22;66.09
22572;BME280;11452;53.368;14.658;2023-01-24T08:18:26;103580.81;;;3.23;66.83
22572;BME280;11452;53.368;14.658;2023-01-24T08:23:32;103577.02;;;3.30;66.82
22572;BME280;11452;53.368;14.658;2023-01-24T08:28:37;103571.61;;;3.47;67.16
22572;BME280;11452;53.368;14.658;2023-01-24T08:33:43;103579.55;;;3.26;66.41
22572;BME280;11452;53.368;14.658;2023-01-24T08:38:48;103576.41;;;3.45;67.15
22572;BME280;11452;53.368;14.658;2023-01-24T08:43:55;103578.97;;;3.64;67.35
22572;BME280;11452;53.368;14.658;2023-01-24T08:49:01;103581.55;;;3.61;66.53
22572;BME280;11452;53.368;14.658;2023-01-24T08:54:07;103578.99;;;3.65;66.99
22572;BME280;11452;53.368;14.658;2023-01-24T08:59:12;103593.94;;;3.63;66.70
22572;BME280;11452;53.368;14.658;2023-01-24T09:04:18;103582.41;;;3.60;66.30
22572;BME280;11452;53.368;14.658;2023-01-24T09:09:23;103585.64;;;3.67;66.65
22572;BME280;11452;53.368;14.658;2023-01-24T09:14:30;103584.25;;;3.64;66.35
22572;BME280;11452;53.368;14.658;2023-01-24T09:19:35;103585.20;;;3.44;66.05
22572;BME280;11452;53.368;14.658;2023-01-24T09:24:41;103595.75;;;3.66;66.90
22572;BME280;11452;53.368;14.658;2023-01-24T09:29:46;103595.38;;;3.69;66.50
22572;BME280;11452;53.368;14.658;2023-01-24T09:34:52;103609.53;;;4.50;63.78
22572;BME280;11452;53.368;14.658;2023-01-24T09:39:58;103616.22;;;4.01;65.58
22572;BME280;11452;53.368;14.658;2023-01-24T09:45:18;103618.82;;;3.74;65.52
22572;BME280;11452;53.368;14.658;2023-01-24T09:50:34;103613.61;;;3.56;65.22
22572;BME280;11452;53.368;14.658;2023-01-24T09:55:40;103603.67;;;3.42;65.84
22572;BME280;11452;53.368;14.658;2023-01-24T10:00:47;103602.67;;;3.59;66.43
22572;BME280;11452;53.368;14.658;2023-01-24T10:05:55;103610.34;;;3.45;66.02
22572;BME280;11452;53.368;14.658;2023-01-24T10:11:40;103609.36;;;3.40;66.30
22572;BME280;11452;53.368;14.658;2023-01-24T10:27:26;103580.94;;;3.29;66.29
22572;BME280;11452;53.368;14.658;2023-01-24T10:32:34;103574.89;;;3.36;66.94
22572;BME280;11452;53.368;14.658;2023-01-24T10:37:42;103574.34;;;3.54;67.29
22572;BME280;11452;53.368;14.658;2023-01-24T10:42:48;103564.33;;;3.59;66.97
22572;BME280;11452;53.368;14.658;2023-01-24T10:48:02;103566.20;;;3.65;66.92
22572;BME280;11452;53.368;14.658;2023-01-24T10:58:23;103560.59;;;3.73;67.20
22572;BME280;11452;53.368;14.658;2023-01-24T11:03:31;103553.35;;;3.61;66.24
22572;BME280;11452;53.368;14.658;2023-01-24T11:08:39;103551.61;;;3.87;67.18
22572;BME280;11452;53.368;14.658;2023-01-24T11:13:44;103552.77;;;4.04;66.83
22572;BME280;11452;53.368;14.658;2023-01-24T11:19:04;103549.66;;;4.03;66.42
22572;BME280;11452;53.368;14.658;2023-01-24T11:24:15;103547.72;;;3.93;65.84
22572;BME280;11452;53.368;14.658;2023-01-24T11:29:21;103548.34;;;4.03;66.21
22572;BME280;11452;53.368;14.658;2023-01-24T11:34:35;103540.61;;;4.16;66.48
22572;BME280;11452;53.368;14.658;2023-01-24T11:51:11;103546.61;;;4.05;65.77
22572;BME280;11452;53.368;14.658;2023-01-24T11:56:27;103552.77;;;4.04;65.31
22572;BME280;11452;53.368;14.658;2023-01-24T12:01:50;103538.45;;;3.93;65.08
22572;BME280;11452;53.368;14.658;2023-01-24T12:17:37;103525.95;;;3.82;64.95
22572;BME280;11452;53.368;14.658;2023-01-24T12:22:43;103523.42;;;3.89;65.25
22572;BME280;11452;53.368;14.658;2023-01-24T12:27:50;103520.70;;;4.13;65.47
22572;BME280;11452;53.368;14.658;2023-01-24T12:38:43;103509.44;;;4.25;64.89
22572;BME280;11452;53.368;14.658;2023-01-24T12:44:26;103498.59;;;4.10;64.35
22572;BME280;11452;53.368;14.658;2023-01-24T13:00:22;103486.86;;;4.21;64.61
22572;BME280;11452;53.368;14.658;2023-01-24T13:11:17;103491.70;;;4.20;64.57
22572;BME280;11452;53.368;14.658;2023-01-24T13:16:15;103481.50;;;4.48;63.53
22572;BME280;11452;53.368;14.658;2023-01-24T13:21:21;103481.50;;;4.48;63.53
22572;BME280;11452;53.368;14.658;2023-01-24T13:26:40;103473.86;;;4.37;63.56
22572;BME280;11452;53.368;14.658;2023-01-24T13:32:16;103478.38;;;4.44;64.21
22572;BME280;11452;53.368;14.658;2023-01-24T13:37:20;103469.69;;;4.56;63.88
22572;BME280;11452;53.368;14.658;2023-01-24T13:42:36;103460.33;;;4.50;63.81
22572;BME280;11452;53.368;14.658;2023-01-24T13:47:42;103460.08;;;4.63;64.20
22572;BME280;11452;53.368;14.658;2023-01-24T13:52:49;103444.38;;;4.79;64.02
22572;BME280;11452;53.368;14.658;2023-01-24T14:24:34;103460.20;;;4.39;63.14
22572;BME280;11452;53.368;14.658;2023-01-24T14:29:43;103461.81;;;4.61;63.79
22572;BME280;11452;53.368;14.658;2023-01-24T14:40:24;103467.80;;;4.47;63.16
22572;BME280;11452;53.368;14.658;2023-01-24T14:45:32;103458.93;;;4.42;63.39
22572;BME280;11452;53.368;14.658;2023-01-24T14:50:38;103463.37;;;4.46;63.39
22572;BME280;11452;53.368;14.658;2023-01-24T14:55:44;103460.58;;;4.34;63.44
22572;BME280;11452;53.368;14.658;2023-01-24T15:00:51;103448.17;;;4.32;63.36
22572;BME280;11452;53.368;14.658;2023-01-24T15:11:27;103460.80;;;4.18;63.80
22572;BME280;11452;53.368;14.658;2023-01-24T15:16:49;103444.05;;;4.20;63.37
22572;BME280;11452;53.368;14.658;2023-01-24T15:21:56;103451.27;;;4.00;63.35
22572;BME280;11452;53.368;14.658;2023-01-24T15:27:19;103440.56;;;3.93;63.67
22572;BME280;11452;53.368;14.658;2023-01-24T15:37:42;103437.17;;;4.01;63.84
22572;BME280;11452;53.368;14.658;2023-01-24T15:42:48;103448.02;;;3.90;63.91
22572;BME280;11452;53.368;14.658;2023-01-24T15:48:22;103447.94;;;3.84;64.30
22572;BME280;11452;53.368;14.658;2023-01-24T15:53:32;103454.33;;;3.98;64.44
22572;BME280;11452;53.368;14.658;2023-01-24T15:58:38;103447.25;;;3.97;64.53
22572;BME280;11452;53.368;14.658;2023-01-24T16:03:44;103439.14;;;3.85;64.08
22572;BME280;11452;53.368;14.658;2023-01-24T16:08:50;103444.89;;;3.86;64.55
22572;BME280;11452;53.368;14.658;2023-01-24T16:13:55;103444.76;;;3.78;64.46
22572;BME280;11452;53.368;14.658;2023-01-24T16:19:01;103436.23;;;3.68;64.23
22572;BME280;11452;53.368;14.658;2023-01-24T16:24:06;103430.92;;;3.67;64.74
22572;BME280;11452;53.368;14.658;2023-01-24T16:29:23;103437.02;;;3.63;64.62
22572;BME280;11452;53.368;14.658;2023-01-24T16:34:29;103434.92;;;3.68;64.96
22572;BME280;11452;53.368;14.658;2023-01-24T16:39:34;103421.56;;;3.61;64.91
22572;BME280;11452;53.368;14.658;2023-01-24T16:44:40;103434.05;;;3.69;65.16
22572;BME280;11452;53.368;14.658;2023-01-24T16:49:46;103443.36;;;3.74;65.18
22572;BME280;11452;53.368;14.658;2023-01-24T16:54:51;103437.17;;;3.73;65.43
22572;BME280;11452;53.368;14.658;2023-01-24T16:59:57;103434.08;;;3.71;65.05
22572;BME280;11452;53.368;14.658;2023-01-24T17:05:06;103441.91;;;3.65;65.12
22572;BME280;11452;53.368;14.658;2023-01-24T17:10:11;103434.20;;;3.80;65.57
22572;BME280;11452;53.368;14.658;2023-01-24T17:15:17;103436.27;;;3.70;65.44
22572;BME280;11452;53.368;14.658;2023-01-24T17:20:23;103440.07;;;3.61;65.61
22572;BME280;11452;53.368;14.658;2023-01-24T17:25:31;103446.84;;;3.71;65.56
22572;BME280;11452;53.368;14.658;2023-01-24T17:30:37;103451.08;;;3.60;65.64
22572;BME280;11452;53.368;14.658;2023-01-24T17:35:43;103441.77;;;3.57;65.46
22572;BME280;11452;53.368;14.658;2023-01-24T17:40:50;103438.47;;;3.44;65.64
22572;BME280;11452;53.368;14.658;2023-01-24T17:45:59;103429.63;;;3.42;65.63
22572;BME280;11452;53.368;14.658;2023-01-24T17:51:09;103433.62;;;3.43;65.96
22572;BME280;11452;53.368;14.658;2023-01-24T17:56:17;103432.90;;;3.52;66.48
22572;BME280;11452;53.368;14.658;2023-01-24T18:01:22;103421.17;;;3.38;65.90
22572;BME280;11452;53.368;14.658;2023-01-24T18:06:28;103424.28;;;3.39;66.22
22572;BME280;11452;53.368;14.658;2023-01-24T18:11:34;103421.20;;;3.39;66.46
22572;BME280;11452;53.368;14.658;2023-01-24T18:16:40;103419.70;;;3.55;67.32
22572;BME280;11452;53.368;14.658;2023-01-24T18:21:46;103416.03;;;3.45;66.26
22572;BME280;11452;53.368;14.658;2023-01-24T18:26:51;103419.67;;;3.54;67.00
22572;BME280;11452;53.368;14.658;2023-01-24T18:31:57;103414.66;;;3.42;66.37
22572;BME280;11452;53.368;14.658;2023-01-24T18:37:03;103413.20;;;3.33;66.43
22572;BME280;11452;53.368;14.658;2023-01-24T18:42:08;103416.81;;;3.40;66.46
22572;BME280;11452;53.368;14.658;2023-01-24T18:47:14;103419.52;;;3.43;66.70
22572;BME280;11452;53.368;14.658;2023-01-24T18:52:23;103417.59;;;3.34;66.11
22572;BME280;11452;53.368;14.658;2023-01-24T18:57:29;103421.27;;;3.18;65.90
22572;BME280;11452;53.368;14.658;2023-01-24T19:02:35;103425.84;;;3.26;66.47
22572;BME280;11452;53.368;14.658;2023-01-24T19:07:41;103440.48;;;3.32;66.52
22572;BME280;11452;53.368;14.658;2023-01-24T19:12:48;103447.58;;;3.36;66.63
22572;BME280;11452;53.368;14.658;2023-01-24T19:17:54;103444.48;;;3.34;66.55
22572;BME280;11452;53.368;14.658;2023-01-24T19:23:00;103448.23;;;3.23;66.38
22572;BME280;11452;53.368;14.658;2023-01-24T19:28:05;103453.98;;;3.24;66.56
22572;BME280;11452;53.368;14.658;2023-01-24T19:33:11;103450.52;;;3.27;66.83
22572;BME280;11452;53.368;14.658;2023-01-24T19:38:17;103457.16;;;3.28;66.68
22572;BME280;11452;53.368;14.658;2023-01-24T19:43:22;103460.34;;;3.34;66.65
22572;BME280;11452;53.368;14.658;2023-01-24T19:48:28;103463.78;;;3.30;66.75
22572;BME280;11452;53.368;14.658;2023-01-24T19:53:34;103464.84;;;3.16;66.39
22572;BME280;11452;53.368;14.658;2023-01-24T19:58:39;103464.09;;;3.23;66.88
22572;BME280;11452;53.368;14.658;2023-01-24T20:03:45;103456.06;;;3.42;67.06
22572;BME280;11452;53.368;14.658;2023-01-24T20:08:53;103456.52;;;3.43;67.06
22572;BME280;11452;53.368;14.658;2023-01-24T20:13:59;103457.37;;;3.42;67.09
22572;BME280;11452;53.368;14.658;2023-01-24T20:19:05;103461.03;;;3.48;67.21
22572;BME280;11452;53.368;14.658;2023-01-24T20:24:14;103454.47;;;3.53;66.78
22572;BME280;11452;53.368;14.658;2023-01-24T20:29:19;103451.42;;;3.55;66.67
22572;BME280;11452;53.368;14.658;2023-01-24T20:34:25;103448.62;;;3.44;66.77
22572;BME280;11452;53.368;14.658;2023-01-24T20:39:31;103447.03;;;3.56;67.29
22572;BME280;11452;53.368;14.658;2023-01-24T20:44:36;103445.95;;;3.69;66.99
22572;BME280;11452;53.368;14.658;2023-01-24T20:49:42;103446.63;;;3.58;66.69
22572;BME280;11452;53.368;14.658;2023-01-24T20:54:48;103437.67;;;3.48;66.67
22572;BME280;11452;53.368;14.658;2023-01-24T20:59:53;103441.12;;;3.44;66.31
22572;BME280;11452;53.368;14.658;2023-01-24T21:04:59;103431.54;;;4.09;64.18
22572;BME280;11452;53.368;14.658;2023-01-24T21:10:05;103430.88;;;3.64;65.79
22572;BME280;11452;53.368;14.658;2023-01-24T21:15:11;103427.98;;;3.48;66.16
22572;BME280;11452;53.368;14.658;2023-01-24T21:20:16;103415.14;;;3.45;66.39
22572;BME280;11452;53.368;14.658;2023-01-24T21:25:22;103415.25;;;3.51;66.53
22572;BME280;11452;53.368;14.658;2023-01-24T21:30:27;103419.45;;;3.40;66.52
22572;BME280;11452;53.368;14.658;2023-01-24T21:35:33;103416.30;;;3.36;66.50
22572;BME280;11452;53.368;14.658;2023-01-24T21:40:39;103408.27;;;3.05;66.36
22572;BME280;11452;53.368;14.658;2023-01-24T21:45:52;103407.19;;;3.19;66.97
22572;BME280;11452;53.368;14.658;2023-01-24T21:51:02;103411.27;;;3.25;66.97
22572;BME280;11452;53.368;14.658;2023-01-24T21:56:07;103412.77;;;3.34;66.85
22572;BME280;11452;53.368;14.658;2023-01-24T22:01:32;103411.88;;;3.33;66.95
22572;BME280;11452;53.368;14.658;2023-01-24T22:06:37;103423.63;;;3.26;66.34
22572;BME280;11452;53.368;14.658;2023-01-24T22:11:44;103412.73;;;3.07;66.22
22572;BME280;11452;53.368;14.658;2023-01-24T22:16:58;103412.55;;;2.97;66.59
22572;BME280;11452;53.368;14.658;2023-01-24T22:27:16;103412.98;;;2.96;66.82
22572;BME280;11452;53.368;14.658;2023-01-24T22:32:23;103410.95;;;3.06;67.29
22572;BME280;11452;53.368;14.658;2023-01-24T22:37:36;103410.89;;;3.03;67.06
22572;BME280;11452;53.368;14.658;2023-01-24T22:42:43;103386.42;;;3.13;67.51
22572;BME280;11452;53.368;14.658;2023-01-24T22:47:49;103372.03;;;2.98;66.91
22572;BME280;11452;53.368;14.658;2023-01-24T22:52:54;103358.58;;;3.63;65.86
22572;BME280;11452;53.368;14.658;2023-01-24T22:58:00;103351.79;;;2.98;66.28
22572;BME280;11452;53.368;14.658;2023-01-24T23:03:05;103339.64;;;2.83;66.81
22572;BME280;11452;53.368;14.658;2023-01-24T23:08:11;103345.30;;;2.78;67.17
22572;BME280;11452;53.368;14.658;2023-01-24T23:13:17;103333.84;;;2.77;67.22
22572;BME280;11452;53.368;14.658;2023-01-24T23:18:40;103329.17;;;2.88;67.76
22572;BME280;11452;53.368;14.658;2023-01-24T23:24:04;103329.75;;;2.95;67.58
22572;BME280;11452;53.368;14.658;2023-01-24T23:34:29;103321.16;;;2.83;67.50
22572;BME280;11452;53.368;14.658;2023-01-24T23:39:29;103323.72;;;2.77;67.72
22572;BME280;11452;53.368;14.658;2023-01-24T23:44:35;103313.69;;;2.84;68.24
22572;BME280;11452;53.368;14.658;2023-01-24T23:49:40;103303.24;;;2.90;68.10
22572;BME280;11452;53.368;14.658;2023-01-24T23:54:47;103298.50;;;2.97;67.89
22572;BME280;11452;53.368;14.658;2023-01-24T23:59:52;103298.98;;;3.00;67.97
